sensor_id;sensor_type;location;lat;lon;timestamp;P1;durP1;ratioP1;P2;durP2;ratioP2
65971;SDS011;52726;48.852;9.152;2022-08-25T00:00:36;2.38;;;2.00;;
65971;SDS011;52726;48.852;9.152;2022-08-25T00:03:01;5.07;;;2.20;;
65971;SDS011;52726;48.852;9.152;2022-08-25T00:05:27;2.83;;;2.20;;
65971;SDS011;52726;48.852;9.152;2022-08-25T00:07:55;2.63;;;2.10;;
65971;SDS011;52726;48.852;9.152;2022-08-25T00:10:21;2.33;;;2.08;;
65971;SDS011;52726;48.852;9.152;2022-08-25T00:12:46;3.63;;;2.10;;
65971;SDS011;52726;48.852;9.152;2022-08-25T00:15:11;2.63;;;2.00;;
65971;SDS011;52726;48.852;9.152;2022-08-25T00:17:37;2.75;;;2.20;;
65971;SDS011;52726;48.852;9.152;2022-08-25T00:20:03;2.80;;;2.30;;
65971;SDS011;52726;48.852;9.152;2022-08-25T00:22:30;3.08;;;2.25;;
65971;SDS011;52726;48.852;9.152;2022-08-25T00:24:55;2.90;;;2.13;;
65971;SDS011;52726;48.852;9.152;2022-08-25T00:27:20;2.85;;;2.30;;
65971;SDS011;52726;48.852;9.152;2022-08-25T00:29:46;3.08;;;2.38;;
65971;SDS011;52726;48.852;9.152;2022-08-25T00:32:11;3.55;;;2.33;;
65971;SDS011;52726;48.852;9.152;2022-08-25T00:34:37;2.33;;;2.13;;
65971;SDS011;52726;48.852;9.152;2022-08-25T00:37:04;2.63;;;2.33;;
65971;SDS011;52726;48.852;9.152;2022-08-25T00:39:31;2.88;;;2.35;;
65971;SDS011;52726;48.852;9.152;2022-08-25T00:41:57;2.60;;;2.10;;
65971;SDS011;52726;48.852;9.152;2022-08-25T00:44:24;3.20;;;2.42;;
65971;SDS011;52726;48.852;9.152;2022-08-25T00:46:52;4.10;;;2.55;;
65971;SDS011;52726;48.852;9.152;2022-08-25T00:49:24;7.72;;;2.53;;
65971;SDS011;52726;48.852;9.152;2022-08-25T00:51:58;2.78;;;2.20;;
65971;SDS011;52726;48.852;9.152;2022-08-25T00:54:26;2.70;;;2.50;;
65971;SDS011;52726;48.852;9.152;2022-08-25T00:56:54;3.45;;;2.42;;
65971;SDS011;52726;48.852;9.152;2022-08-25T00:59:20;4.43;;;2.67;;
65971;SDS011;52726;48.852;9.152;2022-08-25T01:01:48;3.35;;;2.53;;
65971;SDS011;52726;48.852;9.152;2022-08-25T01:04:14;3.13;;;2.38;;
65971;SDS011;52726;48.852;9.152;2022-08-25T01:06:41;6.18;;;2.40;;
65971;SDS011;52726;48.852;9.152;2022-08-25T01:09:11;3.17;;;2.35;;
65971;SDS011;52726;48.852;9.152;2022-08-25T01:11:38;3.22;;;2.50;;
65971;SDS011;52726;48.852;9.152;2022-08-25T01:14:05;3.13;;;2.28;;
65971;SDS011;52726;48.852;9.152;2022-08-25T01:16:35;2.85;;;2.28;;
65971;SDS011;52726;48.852;9.152;2022-08-25T01:19:01;3.85;;;2.60;;
65971;SDS011;52726;48.852;9.152;2022-08-25T01:21:28;3.28;;;2.03;;
65971;SDS011;52726;48.852;9.152;2022-08-25T01:23:56;4.68;;;2.03;;
65971;SDS011;52726;48.852;9.152;2022-08-25T01:26:25;3.38;;;2.30;;
65971;SDS011;52726;48.852;9.152;2022-08-25T01:28:56;5.57;;;2.30;;
65971;SDS011;52726;48.852;9.152;2022-08-25T01:31:41;3.20;;;2.33;;
65971;SDS011;52726;48.852;9.152;2022-08-25T01:34:07;6.85;;;2.63;;
65971;SDS011;52726;48.852;9.152;2022-08-25T01:36:34;2.95;;;2.67;;
65971;SDS011;52726;48.852;9.152;2022-08-25T01:39:00;3.35;;;2.75;;
65971;SDS011;52726;48.852;9.152;2022-08-25T01:44:04;3.50;;;2.60;;
65971;SDS011;52726;48.852;9.152;2022-08-25T01:46:30;3.55;;;2.40;;
65971;SDS011;52726;48.852;9.152;2022-08-25T01:48:56;3.78;;;2.88;;
65971;SDS011;52726;48.852;9.152;2022-08-25T01:51:25;2.88;;;2.58;;
65971;SDS011;52726;48.852;9.152;2022-08-25T01:53:53;5.07;;;2.75;;
65971;SDS011;52726;48.852;9.152;2022-08-25T01:56:18;3.15;;;2.40;;
65971;SDS011;52726;48.852;9.152;2022-08-25T01:58:45;2.97;;;2.47;;
65971;SDS011;52726;48.852;9.152;2022-08-25T02:01:13;3.65;;;2.72;;
65971;SDS011;52726;48.852;9.152;2022-08-25T02:03:43;4.18;;;3.00;;
65971;SDS011;52726;48.852;9.152;2022-08-25T02:06:12;5.03;;;3.47;;
65971;SDS011;52726;48.852;9.152;2022-08-25T02:08:40;7.00;;;2.45;;
65971;SDS011;52726;48.852;9.152;2022-08-25T02:11:09;3.20;;;2.75;;
65971;SDS011;52726;48.852;9.152;2022-08-25T02:13:38;4.22;;;2.60;;
65971;SDS011;52726;48.852;9.152;2022-08-25T02:16:04;3.33;;;2.60;;
65971;SDS011;52726;48.852;9.152;2022-08-25T02:18:31;3.58;;;2.85;;
65971;SDS011;52726;48.852;9.152;2022-08-25T02:20:56;3.35;;;2.70;;
65971;SDS011;52726;48.852;9.152;2022-08-25T02:23:22;5.68;;;2.72;;
65971;SDS011;52726;48.852;9.152;2022-08-25T02:25:47;4.10;;;2.90;;
65971;SDS011;52726;48.852;9.152;2022-08-25T02:28:13;5.45;;;2.75;;
65971;SDS011;52726;48.852;9.152;2022-08-25T02:30:39;4.30;;;2.88;;
65971;SDS011;52726;48.852;9.152;2022-08-25T02:33:06;3.20;;;2.40;;
65971;SDS011;52726;48.852;9.152;2022-08-25T02:35:33;3.92;;;2.60;;
65971;SDS011;52726;48.852;9.152;2022-08-25T02:37:58;4.13;;;3.10;;
65971;SDS011;52726;48.852;9.152;2022-08-25T02:40:24;4.43;;;3.00;;
65971;SDS011;52726;48.852;9.152;2022-08-25T02:42:49;3.60;;;3.03;;
65971;SDS011;52726;48.852;9.152;2022-08-25T02:45:15;3.83;;;2.90;;
65971;SDS011;52726;48.852;9.152;2022-08-25T02:47:42;5.57;;;3.00;;
65971;SDS011;52726;48.852;9.152;2022-08-25T02:50:09;4.07;;;3.10;;
65971;SDS011;52726;48.852;9.152;2022-08-25T02:52:35;4.93;;;2.97;;
65971;SDS011;52726;48.852;9.152;2022-08-25T02:55:01;4.85;;;3.25;;
65971;SDS011;52726;48.852;9.152;2022-08-25T02:57:28;5.25;;;2.95;;
65971;SDS011;52726;48.852;9.152;2022-08-25T02:59:54;5.38;;;3.22;;
65971;SDS011;52726;48.852;9.152;2022-08-25T03:02:19;3.55;;;2.55;;
65971;SDS011;52726;48.852;9.152;2022-08-25T03:04:45;3.30;;;3.00;;
65971;SDS011;52726;48.852;9.152;2022-08-25T03:07:11;5.25;;;2.78;;
65971;SDS011;52726;48.852;9.152;2022-08-25T03:09:36;3.47;;;2.90;;
65971;SDS011;52726;48.852;9.152;2022-08-25T03:12:02;3.05;;;2.63;;
65971;SDS011;52726;48.852;9.152;2022-08-25T03:14:28;2.92;;;2.63;;
65971;SDS011;52726;48.852;9.152;2022-08-25T03:16:54;4.20;;;3.00;;
65971;SDS011;52726;48.852;9.152;2022-08-25T03:19:20;6.35;;;3.25;;
65971;SDS011;52726;48.852;9.152;2022-08-25T03:21:45;7.00;;;3.20;;
65971;SDS011;52726;48.852;9.152;2022-08-25T03:24:10;4.47;;;3.35;;
65971;SDS011;52726;48.852;9.152;2022-08-25T03:26:36;3.20;;;2.60;;
65971;SDS011;52726;48.852;9.152;2022-08-25T03:29:17;5.70;;;3.33;;
65971;SDS011;52726;48.852;9.152;2022-08-25T03:31:44;4.45;;;3.08;;
65971;SDS011;52726;48.852;9.152;2022-08-25T03:34:10;4.00;;;3.03;;
65971;SDS011;52726;48.852;9.152;2022-08-25T03:36:36;3.58;;;2.97;;
65971;SDS011;52726;48.852;9.152;2022-08-25T03:39:02;5.28;;;3.50;;
65971;SDS011;52726;48.852;9.152;2022-08-25T03:41:29;5.03;;;3.15;;
65971;SDS011;52726;48.852;9.152;2022-08-25T03:43:59;4.43;;;2.95;;
65971;SDS011;52726;48.852;9.152;2022-08-25T03:46:27;4.20;;;3.28;;
65971;SDS011;52726;48.852;9.152;2022-08-25T03:48:55;3.60;;;3.00;;
65971;SDS011;52726;48.852;9.152;2022-08-25T03:51:30;5.32;;;3.17;;
65971;SDS011;52726;48.852;9.152;2022-08-25T03:53:58;3.92;;;3.35;;
65971;SDS011;52726;48.852;9.152;2022-08-25T03:56:25;17.30;;;3.00;;
65971;SDS011;52726;48.852;9.152;2022-08-25T03:58:51;3.72;;;2.85;;
65971;SDS011;52726;48.852;9.152;2022-08-25T04:01:18;5.00;;;3.17;;
65971;SDS011;52726;48.852;9.152;2022-08-25T04:03:43;4.53;;;3.10;;
65971;SDS011;52726;48.852;9.152;2022-08-25T04:06:09;3.13;;;2.83;;
65971;SDS011;52726;48.852;9.152;2022-08-25T04:08:35;4.97;;;3.33;;
65971;SDS011;52726;48.852;9.152;2022-08-25T04:11:20;4.47;;;3.05;;
65971;SDS011;52726;48.852;9.152;2022-08-25T04:13:47;5.03;;;3.30;;
65971;SDS011;52726;48.852;9.152;2022-08-25T04:16:14;6.53;;;3.03;;
65971;SDS011;52726;48.852;9.152;2022-08-25T04:18:43;7.15;;;3.15;;
65971;SDS011;52726;48.852;9.152;2022-08-25T04:21:09;4.32;;;3.00;;
65971;SDS011;52726;48.852;9.152;2022-08-25T04:23:39;5.13;;;3.15;;
65971;SDS011;52726;48.852;9.152;2022-08-25T04:26:08;6.70;;;3.67;;
65971;SDS011;52726;48.852;9.152;2022-08-25T04:28:37;3.78;;;2.90;;
65971;SDS011;52726;48.852;9.152;2022-08-25T04:31:07;7.35;;;3.70;;
65971;SDS011;52726;48.852;9.152;2022-08-25T04:33:35;6.55;;;3.63;;
65971;SDS011;52726;48.852;9.152;2022-08-25T04:36:01;5.32;;;3.40;;
65971;SDS011;52726;48.852;9.152;2022-08-25T04:38:27;7.43;;;3.70;;
65971;SDS011;52726;48.852;9.152;2022-08-25T04:40:55;6.72;;;3.67;;
65971;SDS011;52726;48.852;9.152;2022-08-25T04:43:25;6.60;;;3.50;;
65971;SDS011;52726;48.852;9.152;2022-08-25T04:45:51;4.63;;;3.58;;
65971;SDS011;52726;48.852;9.152;2022-08-25T04:48:16;4.82;;;3.33;;
65971;SDS011;52726;48.852;9.152;2022-08-25T04:50:42;6.85;;;3.80;;
65971;SDS011;52726;48.852;9.152;2022-08-25T04:53:08;4.47;;;3.50;;
65971;SDS011;52726;48.852;9.152;2022-08-25T04:55:38;5.97;;;3.70;;
65971;SDS011;52726;48.852;9.152;2022-08-25T04:58:05;7.80;;;4.05;;
65971;SDS011;52726;48.852;9.152;2022-08-25T05:00:32;4.05;;;3.22;;
65971;SDS011;52726;48.852;9.152;2022-08-25T05:02:58;5.97;;;4.05;;
65971;SDS011;52726;48.852;9.152;2022-08-25T05:05:24;6.30;;;3.72;;
65971;SDS011;52726;48.852;9.152;2022-08-25T05:07:49;5.68;;;4.05;;
65971;SDS011;52726;48.852;9.152;2022-08-25T05:10:14;5.35;;;3.58;;
65971;SDS011;52726;48.852;9.152;2022-08-25T05:12:40;5.40;;;3.78;;
65971;SDS011;52726;48.852;9.152;2022-08-25T05:15:05;5.95;;;4.32;;
65971;SDS011;52726;48.852;9.152;2022-08-25T05:17:51;6.65;;;3.85;;
65971;SDS011;52726;48.852;9.152;2022-08-25T05:20:16;7.07;;;4.13;;
65971;SDS011;52726;48.852;9.152;2022-08-25T05:22:43;6.15;;;4.25;;
65971;SDS011;52726;48.852;9.152;2022-08-25T05:25:10;5.53;;;4.13;;
65971;SDS011;52726;48.852;9.152;2022-08-25T05:27:35;8.38;;;3.90;;
65971;SDS011;52726;48.852;9.152;2022-08-25T05:30:00;5.15;;;3.63;;
65971;SDS011;52726;48.852;9.152;2022-08-25T05:32:26;7.75;;;4.30;;
65971;SDS011;52726;48.852;9.152;2022-08-25T05:34:51;6.47;;;3.90;;
65971;SDS011;52726;48.852;9.152;2022-08-25T05:37:16;10.50;;;4.35;;
65971;SDS011;52726;48.852;9.152;2022-08-25T05:39:42;5.70;;;3.97;;
65971;SDS011;52726;48.852;9.152;2022-08-25T05:42:07;8.00;;;3.97;;
65971;SDS011;52726;48.852;9.152;2022-08-25T05:44:32;6.10;;;3.92;;
65971;SDS011;52726;48.852;9.152;2022-08-25T05:46:58;11.27;;;4.40;;
65971;SDS011;52726;48.852;9.152;2022-08-25T05:49:23;7.00;;;4.10;;
65971;SDS011;52726;48.852;9.152;2022-08-25T05:51:49;5.45;;;3.83;;
65971;SDS011;52726;48.852;9.152;2022-08-25T05:54:14;6.05;;;3.80;;
65971;SDS011;52726;48.852;9.152;2022-08-25T05:56:39;7.57;;;3.90;;
65971;SDS011;52726;48.852;9.152;2022-08-25T05:59:05;6.10;;;3.92;;
65971;SDS011;52726;48.852;9.152;2022-08-25T06:01:30;5.93;;;4.28;;
65971;SDS011;52726;48.852;9.152;2022-08-25T06:04:14;7.28;;;4.82;;
65971;SDS011;52726;48.852;9.152;2022-08-25T06:06:41;8.13;;;4.63;;
65971;SDS011;52726;48.852;9.152;2022-08-25T06:09:07;6.68;;;4.80;;
65971;SDS011;52726;48.852;9.152;2022-08-25T06:11:35;9.93;;;5.20;;
65971;SDS011;52726;48.852;9.152;2022-08-25T06:14:02;11.48;;;4.90;;
65971;SDS011;52726;48.852;9.152;2022-08-25T06:16:27;9.52;;;4.45;;
65971;SDS011;52726;48.852;9.152;2022-08-25T06:18:53;7.25;;;4.43;;
65971;SDS011;52726;48.852;9.152;2022-08-25T06:21:19;7.43;;;4.63;;
65971;SDS011;52726;48.852;9.152;2022-08-25T06:23:44;7.03;;;5.00;;
65971;SDS011;52726;48.852;9.152;2022-08-25T06:26:10;9.80;;;4.93;;
65971;SDS011;52726;48.852;9.152;2022-08-25T06:28:37;6.57;;;4.75;;
65971;SDS011;52726;48.852;9.152;2022-08-25T06:31:02;7.95;;;4.90;;
65971;SDS011;52726;48.852;9.152;2022-08-25T06:33:28;7.95;;;4.88;;
65971;SDS011;52726;48.852;9.152;2022-08-25T06:35:54;7.90;;;4.57;;
65971;SDS011;52726;48.852;9.152;2022-08-25T06:38:20;7.32;;;4.85;;
65971;SDS011;52726;48.852;9.152;2022-08-25T06:40:47;6.25;;;4.80;;
65971;SDS011;52726;48.852;9.152;2022-08-25T06:43:13;6.57;;;4.35;;
65971;SDS011;52726;48.852;9.152;2022-08-25T06:45:39;8.82;;;5.05;;
65971;SDS011;52726;48.852;9.152;2022-08-25T06:48:05;5.88;;;4.32;;
65971;SDS011;52726;48.852;9.152;2022-08-25T06:50:30;5.38;;;4.05;;
65971;SDS011;52726;48.852;9.152;2022-08-25T06:52:55;6.85;;;4.10;;
65971;SDS011;52726;48.852;9.152;2022-08-25T06:55:21;5.45;;;4.03;;
65971;SDS011;52726;48.852;9.152;2022-08-25T06:57:46;5.45;;;4.10;;
65971;SDS011;52726;48.852;9.152;2022-08-25T07:00:12;5.57;;;3.65;;
65971;SDS011;52726;48.852;9.152;2022-08-25T07:02:38;6.90;;;3.95;;
65971;SDS011;52726;48.852;9.152;2022-08-25T07:05:04;5.57;;;3.80;;
65971;SDS011;52726;48.852;9.152;2022-08-25T07:07:30;4.82;;;3.90;;
65971;SDS011;52726;48.852;9.152;2022-08-25T07:09:56;4.93;;;4.00;;
65971;SDS011;52726;48.852;9.152;2022-08-25T07:12:22;6.38;;;4.03;;
65971;SDS011;52726;48.852;9.152;2022-08-25T07:14:48;5.22;;;3.85;;
65971;SDS011;52726;48.852;9.152;2022-08-25T07:17:14;4.85;;;4.07;;
65971;SDS011;52726;48.852;9.152;2022-08-25T07:19:39;6.53;;;4.13;;
65971;SDS011;52726;48.852;9.152;2022-08-25T07:22:05;8.88;;;3.80;;
65971;SDS011;52726;48.852;9.152;2022-08-25T07:24:30;4.72;;;3.33;;
65971;SDS011;52726;48.852;9.152;2022-08-25T07:26:55;5.32;;;4.03;;
65971;SDS011;52726;48.852;9.152;2022-08-25T07:29:22;4.30;;;3.53;;
65971;SDS011;52726;48.852;9.152;2022-08-25T07:31:48;5.95;;;3.60;;
65971;SDS011;52726;48.852;9.152;2022-08-25T07:34:14;5.22;;;3.80;;
65971;SDS011;52726;48.852;9.152;2022-08-25T07:36:58;5.80;;;3.80;;
65971;SDS011;52726;48.852;9.152;2022-08-25T07:39:24;5.50;;;3.83;;
65971;SDS011;52726;48.852;9.152;2022-08-25T07:41:50;6.90;;;3.67;;
65971;SDS011;52726;48.852;9.152;2022-08-25T07:44:16;5.05;;;3.75;;
65971;SDS011;52726;48.852;9.152;2022-08-25T07:46:42;4.40;;;3.63;;
65971;SDS011;52726;48.852;9.152;2022-08-25T07:49:08;7.32;;;3.30;;
65971;SDS011;52726;48.852;9.152;2022-08-25T07:51:33;5.47;;;3.58;;
65971;SDS011;52726;48.852;9.152;2022-08-25T07:53:58;4.68;;;3.65;;
65971;SDS011;52726;48.852;9.152;2022-08-25T07:56:24;4.88;;;3.60;;
65971;SDS011;52726;48.852;9.152;2022-08-25T07:58:49;5.80;;;3.53;;
65971;SDS011;52726;48.852;9.152;2022-08-25T08:01:16;8.05;;;3.90;;
65971;SDS011;52726;48.852;9.152;2022-08-25T08:03:43;6.03;;;3.78;;
65971;SDS011;52726;48.852;9.152;2022-08-25T08:06:09;7.65;;;4.18;;
65971;SDS011;52726;48.852;9.152;2022-08-25T08:08:37;4.65;;;3.35;;
65971;SDS011;52726;48.852;9.152;2022-08-25T08:11:03;5.18;;;3.47;;
65971;SDS011;52726;48.852;9.152;2022-08-25T08:13:29;5.15;;;3.50;;
65971;SDS011;52726;48.852;9.152;2022-08-25T08:15:56;8.10;;;3.90;;
65971;SDS011;52726;48.852;9.152;2022-08-25T08:18:21;3.58;;;2.95;;
65971;SDS011;52726;48.852;9.152;2022-08-25T08:20:47;4.10;;;3.38;;
65971;SDS011;52726;48.852;9.152;2022-08-25T08:23:13;5.05;;;3.40;;
65971;SDS011;52726;48.852;9.152;2022-08-25T08:25:39;4.72;;;3.67;;
65971;SDS011;52726;48.852;9.152;2022-08-25T08:28:05;5.93;;;3.53;;
65971;SDS011;52726;48.852;9.152;2022-08-25T08:30:30;4.22;;;3.17;;
65971;SDS011;52726;48.852;9.152;2022-08-25T08:32:56;4.55;;;3.50;;
65971;SDS011;52726;48.852;9.152;2022-08-25T08:35:21;4.50;;;3.40;;
65971;SDS011;52726;48.852;9.152;2022-08-25T08:37:47;5.10;;;3.30;;
65971;SDS011;52726;48.852;9.152;2022-08-25T08:40:13;4.30;;;3.20;;
65971;SDS011;52726;48.852;9.152;2022-08-25T08:42:46;7.07;;;3.42;;
65971;SDS011;52726;48.852;9.152;2022-08-25T08:58:19;7.25;;;3.75;;
65971;SDS011;52726;48.852;9.152;2022-08-25T09:00:51;5.40;;;3.20;;
65971;SDS011;52726;48.852;9.152;2022-08-25T09:03:36;4.97;;;3.28;;
65971;SDS011;52726;48.852;9.152;2022-08-25T09:06:07;3.63;;;3.13;;
65971;SDS011;52726;48.852;9.152;2022-08-25T09:08:35;6.05;;;3.47;;
65971;SDS011;52726;48.852;9.152;2022-08-25T09:11:06;5.03;;;3.42;;
65971;SDS011;52726;48.852;9.152;2022-08-25T09:19:24;4.78;;;3.55;;
65971;SDS011;52726;48.852;9.152;2022-08-25T09:21:58;5.10;;;3.30;;
65971;SDS011;52726;48.852;9.152;2022-08-25T09:27:45;6.53;;;3.28;;
65971;SDS011;52726;48.852;9.152;2022-08-25T09:30:21;5.00;;;3.28;;
65971;SDS011;52726;48.852;9.152;2022-08-25T09:32:48;3.45;;;3.10;;
65971;SDS011;52726;48.852;9.152;2022-08-25T09:35:19;5.28;;;3.47;;
65971;SDS011;52726;48.852;9.152;2022-08-25T09:37:54;5.25;;;3.38;;
65971;SDS011;52726;48.852;9.152;2022-08-25T09:40:21;4.82;;;3.08;;
65971;SDS011;52726;48.852;9.152;2022-08-25T09:42:54;4.25;;;3.30;;
65971;SDS011;52726;48.852;9.152;2022-08-25T09:48:18;4.13;;;3.03;;
65971;SDS011;52726;48.852;9.152;2022-08-25T09:50:50;4.10;;;3.45;;
65971;SDS011;52726;48.852;9.152;2022-08-25T09:53:17;4.32;;;3.10;;
65971;SDS011;52726;48.852;9.152;2022-08-25T09:55:45;4.50;;;3.08;;
65971;SDS011;52726;48.852;9.152;2022-08-25T09:58:19;3.60;;;2.72;;
65971;SDS011;52726;48.852;9.152;2022-08-25T10:00:59;3.90;;;3.22;;
65971;SDS011;52726;48.852;9.152;2022-08-25T10:03:55;4.63;;;3.20;;
65971;SDS011;52726;48.852;9.152;2022-08-25T10:06:21;4.25;;;3.50;;
65971;SDS011;52726;48.852;9.152;2022-08-25T10:11:13;4.10;;;3.00;;
65971;SDS011;52726;48.852;9.152;2022-08-25T10:14:07;3.50;;;2.90;;
65971;SDS011;52726;48.852;9.152;2022-08-25T10:16:38;5.15;;;3.22;;
65971;SDS011;52726;48.852;9.152;2022-08-25T10:19:08;7.45;;;3.10;;
65971;SDS011;52726;48.852;9.152;2022-08-25T10:21:36;4.85;;;3.13;;
65971;SDS011;52726;48.852;9.152;2022-08-25T10:24:03;5.82;;;3.15;;
65971;SDS011;52726;48.852;9.152;2022-08-25T10:29:10;4.70;;;3.03;;
65971;SDS011;52726;48.852;9.152;2022-08-25T10:34:20;7.20;;;3.05;;
65971;SDS011;52726;48.852;9.152;2022-08-25T10:39:43;3.92;;;2.88;;
65971;SDS011;52726;48.852;9.152;2022-08-25T10:42:18;3.20;;;2.80;;
65971;SDS011;52726;48.852;9.152;2022-08-25T10:54:28;2.95;;;2.50;;
65971;SDS011;52726;48.852;9.152;2022-08-25T11:08:36;5.50;;;3.00;;
65971;SDS011;52726;48.852;9.152;2022-08-25T11:11:32;3.00;;;2.55;;
65971;SDS011;52726;48.852;9.152;2022-08-25T11:14:06;3.88;;;3.13;;
65971;SDS011;52726;48.852;9.152;2022-08-25T11:30:34;3.92;;;2.83;;
65971;SDS011;52726;48.852;9.152;2022-08-25T11:33:02;6.82;;;2.88;;
65971;SDS011;52726;48.852;9.152;2022-08-25T11:35:36;3.55;;;2.88;;
65971;SDS011;52726;48.852;9.152;2022-08-25T11:51:39;3.47;;;2.90;;
65971;SDS011;52726;48.852;9.152;2022-08-25T11:56:42;2.83;;;2.40;;
65971;SDS011;52726;48.852;9.152;2022-08-25T11:59:57;3.45;;;2.45;;
65971;SDS011;52726;48.852;9.152;2022-08-25T12:02:55;3.47;;;2.50;;
65971;SDS011;52726;48.852;9.152;2022-08-25T12:16:02;2.92;;;2.53;;
65971;SDS011;52726;48.852;9.152;2022-08-25T12:23:28;2.50;;;2.30;;
65971;SDS011;52726;48.852;9.152;2022-08-25T12:32:12;2.75;;;2.45;;
65971;SDS011;52726;48.852;9.152;2022-08-25T12:34:50;3.03;;;2.35;;
65971;SDS011;52726;48.852;9.152;2022-08-25T12:40:26;2.67;;;2.40;;
65971;SDS011;52726;48.852;9.152;2022-08-25T12:45:50;3.05;;;2.50;;
65971;SDS011;52726;48.852;9.152;2022-08-25T12:51:04;2.58;;;2.22;;
65971;SDS011;52726;48.852;9.152;2022-08-25T12:53:41;4.60;;;2.53;;
65971;SDS011;52726;48.852;9.152;2022-08-25T12:56:19;2.47;;;2.28;;
65971;SDS011;52726;48.852;9.152;2022-08-25T13:01:54;3.55;;;2.25;;
65971;SDS011;52726;48.852;9.152;2022-08-25T13:04:46;2.70;;;2.03;;
65971;SDS011;52726;48.852;9.152;2022-08-25T13:15:14;3.55;;;2.33;;
65971;SDS011;52726;48.852;9.152;2022-08-25T13:17:53;4.28;;;2.50;;
65971;SDS011;52726;48.852;9.152;2022-08-25T13:20:21;2.72;;;2.35;;
65971;SDS011;52726;48.852;9.152;2022-08-25T13:22:50;2.55;;;2.17;;
65971;SDS011;52726;48.852;9.152;2022-08-25T13:25:22;2.30;;;1.90;;
65971;SDS011;52726;48.852;9.152;2022-08-25T13:27:50;2.45;;;2.20;;
65971;SDS011;52726;48.852;9.152;2022-08-25T13:30:25;4.75;;;1.90;;
65971;SDS011;52726;48.852;9.152;2022-08-25T13:32:58;4.30;;;2.95;;
65971;SDS011;52726;48.852;9.152;2022-08-25T13:35:25;2.90;;;1.95;;
65971;SDS011;52726;48.852;9.152;2022-08-25T13:37:53;2.50;;;1.98;;
65971;SDS011;52726;48.852;9.152;2022-08-25T13:42:47;3.13;;;1.90;;
65971;SDS011;52726;48.852;9.152;2022-08-25T13:45:20;2.20;;;2.00;;
65971;SDS011;52726;48.852;9.152;2022-08-25T13:47:47;2.60;;;1.90;;
65971;SDS011;52726;48.852;9.152;2022-08-25T13:50:15;2.03;;;1.83;;
65971;SDS011;52726;48.852;9.152;2022-08-25T13:52:48;2.58;;;2.20;;
65971;SDS011;52726;48.852;9.152;2022-08-25T13:55:21;3.28;;;2.28;;
65971;SDS011;52726;48.852;9.152;2022-08-25T14:00:23;5.05;;;2.10;;
65971;SDS011;52726;48.852;9.152;2022-08-25T14:03:04;3.55;;;2.13;;
65971;SDS011;52726;48.852;9.152;2022-08-25T14:05:40;2.00;;;1.90;;
65971;SDS011;52726;48.852;9.152;2022-08-25T14:08:25;4.05;;;1.90;;
65971;SDS011;52726;48.852;9.152;2022-08-25T14:11:05;3.40;;;2.00;;
65971;SDS011;52726;48.852;9.152;2022-08-25T14:13:31;3.13;;;2.33;;
65971;SDS011;52726;48.852;9.152;2022-08-25T14:16:11;3.75;;;1.85;;
65971;SDS011;52726;48.852;9.152;2022-08-25T14:18:45;2.58;;;2.10;;
65971;SDS011;52726;48.852;9.152;2022-08-25T14:21:23;3.08;;;2.22;;
65971;SDS011;52726;48.852;9.152;2022-08-25T14:23:50;2.70;;;2.08;;
65971;SDS011;52726;48.852;9.152;2022-08-25T14:26:17;2.20;;;2.00;;
65971;SDS011;52726;48.852;9.152;2022-08-25T14:28:42;3.72;;;2.13;;
65971;SDS011;52726;48.852;9.152;2022-08-25T14:31:09;3.58;;;2.20;;
65971;SDS011;52726;48.852;9.152;2022-08-25T14:33:39;3.15;;;2.03;;
65971;SDS011;52726;48.852;9.152;2022-08-25T14:36:07;3.22;;;1.88;;
65971;SDS011;52726;48.852;9.152;2022-08-25T14:38:32;2.95;;;1.95;;
65971;SDS011;52726;48.852;9.152;2022-08-25T14:40:59;1.98;;;1.60;;
65971;SDS011;52726;48.852;9.152;2022-08-25T14:43:25;2.15;;;1.95;;
65971;SDS011;52726;48.852;9.152;2022-08-25T14:45:51;2.30;;;2.00;;
65971;SDS011;52726;48.852;9.152;2022-08-25T14:48:27;3.70;;;2.30;;
65971;SDS011;52726;48.852;9.152;2022-08-25T14:50:57;2.55;;;2.10;;
65971;SDS011;52726;48.852;9.152;2022-08-25T14:53:24;2.13;;;1.88;;
65971;SDS011;52726;48.852;9.152;2022-08-25T14:55:50;3.03;;;2.10;;
65971;SDS011;52726;48.852;9.152;2022-08-25T14:58:19;2.63;;;2.00;;
65971;SDS011;52726;48.852;9.152;2022-08-25T15:00:45;1.73;;;1.63;;
65971;SDS011;52726;48.852;9.152;2022-08-25T15:03:16;3.45;;;2.03;;
65971;SDS011;52726;48.852;9.152;2022-08-25T15:05:44;2.65;;;2.10;;
65971;SDS011;52726;48.852;9.152;2022-08-25T15:08:09;1.92;;;1.75;;
65971;SDS011;52726;48.852;9.152;2022-08-25T15:10:54;2.35;;;2.10;;
65971;SDS011;52726;48.852;9.152;2022-08-25T15:13:19;2.97;;;2.05;;
65971;SDS011;52726;48.852;9.152;2022-08-25T15:15:45;3.28;;;1.90;;
65971;SDS011;52726;48.852;9.152;2022-08-25T15:18:11;2.75;;;1.75;;
65971;SDS011;52726;48.852;9.152;2022-08-25T15:20:37;3.95;;;1.92;;
65971;SDS011;52726;48.852;9.152;2022-08-25T15:23:02;2.55;;;1.98;;
65971;SDS011;52726;48.852;9.152;2022-08-25T15:25:27;3.30;;;2.25;;
65971;SDS011;52726;48.852;9.152;2022-08-25T15:27:53;3.72;;;2.08;;
65971;SDS011;52726;48.852;9.152;2022-08-25T15:30:19;3.55;;;2.00;;
65971;SDS011;52726;48.852;9.152;2022-08-25T15:32:45;4.05;;;2.08;;
65971;SDS011;52726;48.852;9.152;2022-08-25T15:35:10;4.78;;;2.20;;
65971;SDS011;52726;48.852;9.152;2022-08-25T15:37:36;2.80;;;2.13;;
65971;SDS011;52726;48.852;9.152;2022-08-25T15:40:02;3.42;;;1.90;;
65971;SDS011;52726;48.852;9.152;2022-08-25T15:42:29;4.93;;;2.22;;
65971;SDS011;52726;48.852;9.152;2022-08-25T15:44:54;3.55;;;2.22;;
65971;SDS011;52726;48.852;9.152;2022-08-25T15:47:20;2.10;;;1.90;;
65971;SDS011;52726;48.852;9.152;2022-08-25T15:49:46;4.72;;;2.03;;
65971;SDS011;52726;48.852;9.152;2022-08-25T15:52:11;5.15;;;2.33;;
65971;SDS011;52726;48.852;9.152;2022-08-25T15:54:37;3.15;;;1.60;;
65971;SDS011;52726;48.852;9.152;2022-08-25T15:57:03;3.28;;;2.17;;
65971;SDS011;52726;48.852;9.152;2022-08-25T15:59:28;2.47;;;2.03;;
65971;SDS011;52726;48.852;9.152;2022-08-25T16:01:54;1.90;;;1.80;;
65971;SDS011;52726;48.852;9.152;2022-08-25T16:04:24;2.65;;;1.95;;
65971;SDS011;52726;48.852;9.152;2022-08-25T16:09:18;2.58;;;1.92;;
65971;SDS011;52726;48.852;9.152;2022-08-25T16:11:44;2.63;;;2.10;;
65971;SDS011;52726;48.852;9.152;2022-08-25T16:14:10;5.00;;;2.03;;
65971;SDS011;52726;48.852;9.152;2022-08-25T16:16:36;2.45;;;1.90;;
65971;SDS011;52726;48.852;9.152;2022-08-25T16:19:01;3.30;;;1.98;;
65971;SDS011;52726;48.852;9.152;2022-08-25T16:21:30;3.90;;;1.73;;
65971;SDS011;52726;48.852;9.152;2022-08-25T16:23:59;2.42;;;1.88;;
65971;SDS011;52726;48.852;9.152;2022-08-25T16:26:26;2.22;;;2.03;;
65971;SDS011;52726;48.852;9.152;2022-08-25T16:28:52;3.53;;;2.10;;
65971;SDS011;52726;48.852;9.152;2022-08-25T16:31:18;3.45;;;2.40;;
65971;SDS011;52726;48.852;9.152;2022-08-25T16:33:44;2.40;;;2.20;;
65971;SDS011;52726;48.852;9.152;2022-08-25T16:36:15;2.55;;;2.15;;
65971;SDS011;52726;48.852;9.152;2022-08-25T16:38:42;2.88;;;2.08;;
65971;SDS011;52726;48.852;9.152;2022-08-25T16:41:10;2.83;;;2.20;;
65971;SDS011;52726;48.852;9.152;2022-08-25T16:43:37;2.95;;;2.40;;
65971;SDS011;52726;48.852;9.152;2022-08-25T16:46:04;2.03;;;1.90;;
65971;SDS011;52726;48.852;9.152;2022-08-25T16:48:32;2.20;;;2.00;;
65971;SDS011;52726;48.852;9.152;2022-08-25T16:50:58;2.42;;;1.90;;
65971;SDS011;52726;48.852;9.152;2022-08-25T16:53:24;2.55;;;2.35;;
65971;SDS011;52726;48.852;9.152;2022-08-25T16:56:08;2.03;;;1.80;;
65971;SDS011;52726;48.852;9.152;2022-08-25T16:58:35;3.67;;;1.95;;
65971;SDS011;52726;48.852;9.152;2022-08-25T17:01:05;2.83;;;2.03;;
65971;SDS011;52726;48.852;9.152;2022-08-25T17:03:32;2.35;;;1.95;;
65971;SDS011;52726;48.852;9.152;2022-08-25T17:05:58;3.47;;;2.40;;
65971;SDS011;52726;48.852;9.152;2022-08-25T17:08:24;3.17;;;2.20;;
65971;SDS011;52726;48.852;9.152;2022-08-25T17:10:53;2.75;;;1.95;;
65971;SDS011;52726;48.852;9.152;2022-08-25T17:13:29;5.30;;;2.08;;